sensor_id;sensor_type;location;lat;lon;timestamp;temperature;humidity
11385;DHT22;5747;56.748;13.882;2023-07-28T00:00:10;7.20;99.90
11385;DHT22;5747;56.748;13.882;2023-07-28T00:02:40;7.20;99.90
11385;DHT22;5747;56.748;13.882;2023-07-28T00:05:08;7.20;99.90
11385;DHT22;5747;56.748;13.882;2023-07-28T00:07:37;7.20;99.90
11385;DHT22;5747;56.748;13.882;2023-07-28T00:10:05;7.20;99.90
11385;DHT22;5747;56.748;13.882;2023-07-28T00:12:34;7.10;99.90
11385;DHT22;5747;56.748;13.882;2023-07-28T00:15:02;7.10;99.90
11385;DHT22;5747;56.748;13.882;2023-07-28T00:17:32;7.20;99.90
11385;DHT22;5747;56.748;13.882;2023-07-28T00:20:00;7.30;99.90
11385;DHT22;5747;56.748;13.882;2023-07-28T00:22:28;7.30;99.90
11385;DHT22;5747;56.748;13.882;2023-07-28T00:24:56;7.20;99.90
11385;DHT22;5747;56.748;13.882;2023-07-28T00:27:24;7.20;99.90
11385;DHT22;5747;56.748;13.882;2023-07-28T00:29:52;7.20;99.90
11385;DHT22;5747;56.748;13.882;2023-07-28T00:32:21;7.20;99.90
11385;DHT22;5747;56.748;13.882;2023-07-28T00:34:51;7.20;99.90
11385;DHT22;5747;56.748;13.882;2023-07-28T00:37:19;7.20;99.90
11385;DHT22;5747;56.748;13.882;2023-07-28T00:39:47;7.20;99.90
11385;DHT22;5747;56.748;13.882;2023-07-28T00:42:15;7.20;99.90
11385;DHT22;5747;56.748;13.882;2023-07-28T00:44:43;7.20;99.90
11385;DHT22;5747;56.748;13.882;2023-07-28T00:47:11;7.20;99.90
11385;DHT22;5747;56.748;13.882;2023-07-28T00:49:40;7.20;99.90
11385;DHT22;5747;56.748;13.882;2023-07-28T00:52:10;7.10;99.90
11385;DHT22;5747;56.748;13.882;2023-07-28T00:54:38;7.20;99.90
11385;DHT22;5747;56.748;13.882;2023-07-28T00:57:06;7.20;99.90
11385;DHT22;5747;56.748;13.882;2023-07-28T00:59:34;7.10;99.90
11385;DHT22;5747;56.748;13.882;2023-07-28T01:02:03;7.10;99.90
11385;DHT22;5747;56.748;13.882;2023-07-28T01:04:31;7.10;99.90
11385;DHT22;5747;56.748;13.882;2023-07-28T01:07:06;7.10;99.90
11385;DHT22;5747;56.748;13.882;2023-07-28T01:09:46;7.00;99.90
11385;DHT22;5747;56.748;13.882;2023-07-28T01:12:16;7.00;99.90
11385;DHT22;5747;56.748;13.882;2023-07-28T01:14:44;6.90;99.90
11385;DHT22;5747;56.748;13.882;2023-07-28T01:17:12;6.90;99.90
11385;DHT22;5747;56.748;13.882;2023-07-28T01:19:40;6.80;99.90
11385;DHT22;5747;56.748;13.882;2023-07-28T01:22:21;6.70;99.90
11385;DHT22;5747;56.748;13.882;2023-07-28T01:25:03;6.70;99.90
11385;DHT22;5747;56.748;13.882;2023-07-28T01:27:35;6.70;99.90
11385;DHT22;5747;56.748;13.882;2023-07-28T01:30:05;6.70;99.90
11385;DHT22;5747;56.748;13.882;2023-07-28T01:32:34;6.70;99.90
11385;DHT22;5747;56.748;13.882;2023-07-28T01:35:03;6.70;99.90
11385;DHT22;5747;56.748;13.882;2023-07-28T01:37:31;6.70;99.90
11385;DHT22;5747;56.748;13.882;2023-07-28T01:39:59;6.80;99.90
11385;DHT22;5747;56.748;13.882;2023-07-28T01:42:28;6.70;99.90
11385;DHT22;5747;56.748;13.882;2023-07-28T01:44:57;6.80;99.90
11385;DHT22;5747;56.748;13.882;2023-07-28T01:47:25;6.80;99.90
11385;DHT22;5747;56.748;13.882;2023-07-28T01:49:53;6.80;99.90
11385;DHT22;5747;56.748;13.882;2023-07-28T01:52:22;6.80;99.90
11385;DHT22;5747;56.748;13.882;2023-07-28T01:54:50;6.90;99.90
11385;DHT22;5747;56.748;13.882;2023-07-28T01:57:18;6.90;99.90
11385;DHT22;5747;56.748;13.882;2023-07-28T01:59:46;6.80;99.90
11385;DHT22;5747;56.748;13.882;2023-07-28T02:02:15;6.70;99.90
11385;DHT22;5747;56.748;13.882;2023-07-28T02:04:44;6.70;99.90
11385;DHT22;5747;56.748;13.882;2023-07-28T02:07:12;6.70;99.90
11385;DHT22;5747;56.748;13.882;2023-07-28T02:09:40;6.70;99.90
11385;DHT22;5747;56.748;13.882;2023-07-28T02:12:08;6.60;99.90
11385;DHT22;5747;56.748;13.882;2023-07-28T02:14:36;6.70;99.90
11385;DHT22;5747;56.748;13.882;2023-07-28T02:17:05;6.80;99.90
11385;DHT22;5747;56.748;13.882;2023-07-28T02:19:34;6.70;99.90
11385;DHT22;5747;56.748;13.882;2023-07-28T02:22:03;6.70;99.90
11385;DHT22;5747;56.748;13.882;2023-07-28T02:24:32;6.70;99.90
11385;DHT22;5747;56.748;13.882;2023-07-28T02:27:01;6.60;99.90
11385;DHT22;5747;56.748;13.882;2023-07-28T02:29:29;6.50;99.90
11385;DHT22;5747;56.748;13.882;2023-07-28T02:31:57;6.60;99.90
11385;DHT22;5747;56.748;13.882;2023-07-28T02:34:25;6.80;99.90
11385;DHT22;5747;56.748;13.882;2023-07-28T02:36:55;6.90;99.90
11385;DHT22;5747;56.748;13.882;2023-07-28T02:39:23;6.80;99.90
11385;DHT22;5747;56.748;13.882;2023-07-28T02:41:51;6.80;99.90
11385;DHT22;5747;56.748;13.882;2023-07-28T02:44:19;6.70;99.90
11385;DHT22;5747;56.748;13.882;2023-07-28T02:46:47;6.80;99.90
11385;DHT22;5747;56.748;13.882;2023-07-28T02:49:16;6.90;99.90
11385;DHT22;5747;56.748;13.882;2023-07-28T02:51:44;6.90;99.90
11385;DHT22;5747;56.748;13.882;2023-07-28T02:54:13;6.90;99.90
11385;DHT22;5747;56.748;13.882;2023-07-28T02:56:41;6.80;99.90
11385;DHT22;5747;56.748;13.882;2023-07-28T02:59:11;6.80;99.90
11385;DHT22;5747;56.748;13.882;2023-07-28T03:01:39;6.80;99.90
11385;DHT22;5747;56.748;13.882;2023-07-28T03:04:07;6.80;99.90
11385;DHT22;5747;56.748;13.882;2023-07-28T03:06:56;6.80;99.90
11385;DHT22;5747;56.748;13.882;2023-07-28T03:09:25;6.70;99.90
11385;DHT22;5747;56.748;13.882;2023-07-28T03:12:01;6.60;99.90
11385;DHT22;5747;56.748;13.882;2023-07-28T03:14:29;6.60;99.90
11385;DHT22;5747;56.748;13.882;2023-07-28T03:16:57;6.60;99.90
11385;DHT22;5747;56.748;13.882;2023-07-28T03:19:26;6.60;99.90
11385;DHT22;5747;56.748;13.882;2023-07-28T03:21:54;6.70;99.90
11385;DHT22;5747;56.748;13.882;2023-07-28T03:24:22;6.70;99.90
11385;DHT22;5747;56.748;13.882;2023-07-28T03:26:52;6.70;99.90
11385;DHT22;5747;56.748;13.882;2023-07-28T03:29:20;6.70;99.90
11385;DHT22;5747;56.748;13.882;2023-07-28T03:31:49;6.70;99.90
11385;DHT22;5747;56.748;13.882;2023-07-28T03:34:18;6.70;99.90
11385;DHT22;5747;56.748;13.882;2023-07-28T03:36:47;6.80;99.90
11385;DHT22;5747;56.748;13.882;2023-07-28T03:39:15;6.90;99.90
11385;DHT22;5747;56.748;13.882;2023-07-28T03:41:47;6.90;99.90
11385;DHT22;5747;56.748;13.882;2023-07-28T03:44:16;6.90;99.90
11385;DHT22;5747;56.748;13.882;2023-07-28T03:46:46;6.90;99.90
11385;DHT22;5747;56.748;13.882;2023-07-28T03:49:14;7.10;99.90
11385;DHT22;5747;56.748;13.882;2023-07-28T03:51:43;7.30;99.90
11385;DHT22;5747;56.748;13.882;2023-07-28T03:54:11;7.40;99.90
11385;DHT22;5747;56.748;13.882;2023-07-28T03:56:39;7.40;99.90
11385;DHT22;5747;56.748;13.882;2023-07-28T03:59:07;7.60;99.90
11385;DHT22;5747;56.748;13.882;2023-07-28T04:01:37;7.60;99.90
11385;DHT22;5747;56.748;13.882;2023-07-28T04:04:05;7.70;99.90
11385;DHT22;5747;56.748;13.882;2023-07-28T04:06:45;7.60;99.90
11385;DHT22;5747;56.748;13.882;2023-07-28T04:09:15;7.70;99.90
11385;DHT22;5747;56.748;13.882;2023-07-28T04:11:43;7.70;99.90
11385;DHT22;5747;56.748;13.882;2023-07-28T04:14:11;8.00;99.90
11385;DHT22;5747;56.748;13.882;2023-07-28T04:16:40;8.30;99.90
11385;DHT22;5747;56.748;13.882;2023-07-28T04:19:09;8.50;99.90
11385;DHT22;5747;56.748;13.882;2023-07-28T04:21:37;8.80;99.90
11385;DHT22;5747;56.748;13.882;2023-07-28T04:24:08;9.00;99.90
11385;DHT22;5747;56.748;13.882;2023-07-28T04:26:43;9.20;99.90
11385;DHT22;5747;56.748;13.882;2023-07-28T04:29:16;9.30;99.90
11385;DHT22;5747;56.748;13.882;2023-07-28T04:31:46;9.50;99.90
11385;DHT22;5747;56.748;13.882;2023-07-28T04:34:20;9.70;99.90
11385;DHT22;5747;56.748;13.882;2023-07-28T04:37:03;9.90;99.90
11385;DHT22;5747;56.748;13.882;2023-07-28T04:39:51;10.10;99.90
11385;DHT22;5747;56.748;13.882;2023-07-28T04:42:20;10.20;99.90
11385;DHT22;5747;56.748;13.882;2023-07-28T04:44:48;10.30;99.90
11385;DHT22;5747;56.748;13.882;2023-07-28T04:47:19;10.40;99.90
11385;DHT22;5747;56.748;13.882;2023-07-28T04:49:47;10.50;99.90
11385;DHT22;5747;56.748;13.882;2023-07-28T04:52:36;10.60;99.90
11385;DHT22;5747;56.748;13.882;2023-07-28T04:55:30;10.70;99.90
11385;DHT22;5747;56.748;13.882;2023-07-28T04:57:58;10.90;99.90
11385;DHT22;5747;56.748;13.882;2023-07-28T05:00:36;11.00;99.90
11385;DHT22;5747;56.748;13.882;2023-07-28T05:03:06;11.20;99.90
11385;DHT22;5747;56.748;13.882;2023-07-28T05:05:38;11.40;99.90
11385;DHT22;5747;56.748;13.882;2023-07-28T05:08:08;11.40;99.90
11385;DHT22;5747;56.748;13.882;2023-07-28T05:10:36;11.50;99.90
11385;DHT22;5747;56.748;13.882;2023-07-28T05:13:04;11.80;99.90
11385;DHT22;5747;56.748;13.882;2023-07-28T05:15:32;12.10;99.90
11385;DHT22;5747;56.748;13.882;2023-07-28T05:18:01;12.30;99.90
11385;DHT22;5747;56.748;13.882;2023-07-28T05:20:39;12.50;99.90
11385;DHT22;5747;56.748;13.882;2023-07-28T05:23:11;12.60;99.90
11385;DHT22;5747;56.748;13.882;2023-07-28T05:25:39;12.70;99.90
11385;DHT22;5747;56.748;13.882;2023-07-28T05:28:07;12.40;99.90
11385;DHT22;5747;56.748;13.882;2023-07-28T05:30:39;12.70;99.90
11385;DHT22;5747;56.748;13.882;2023-07-28T05:33:07;12.90;99.90
11385;DHT22;5747;56.748;13.882;2023-07-28T05:35:45;13.10;99.90
11385;DHT22;5747;56.748;13.882;2023-07-28T05:38:14;13.20;99.90
11385;DHT22;5747;56.748;13.882;2023-07-28T05:40:42;13.30;99.90
11385;DHT22;5747;56.748;13.882;2023-07-28T05:43:10;13.40;99.90
11385;DHT22;5747;56.748;13.882;2023-07-28T05:45:38;13.50;99.90
11385;DHT22;5747;56.748;13.882;2023-07-28T05:48:14;13.60;99.90
11385;DHT22;5747;56.748;13.882;2023-07-28T05:50:42;13.60;99.90
11385;DHT22;5747;56.748;13.882;2023-07-28T05:53:12;13.90;99.90
11385;DHT22;5747;56.748;13.882;2023-07-28T05:55:40;13.60;99.90
11385;DHT22;5747;56.748;13.882;2023-07-28T05:58:09;13.50;99.90
11385;DHT22;5747;56.748;13.882;2023-07-28T06:00:40;13.60;99.90
11385;DHT22;5747;56.748;13.882;2023-07-28T06:03:16;14.20;99.90
11385;DHT22;5747;56.748;13.882;2023-07-28T06:05:59;14.50;99.90
11385;DHT22;5747;56.748;13.882;2023-07-28T06:08:29;14.70;99.90
11385;DHT22;5747;56.748;13.882;2023-07-28T06:10:57;15.00;99.90
11385;DHT22;5747;56.748;13.882;2023-07-28T06:13:26;15.10;99.90
11385;DHT22;5747;56.748;13.882;2023-07-28T06:15:54;15.20;99.90
11385;DHT22;5747;56.748;13.882;2023-07-28T06:18:23;15.50;99.90
11385;DHT22;5747;56.748;13.882;2023-07-28T06:21:02;15.60;99.90
11385;DHT22;5747;56.748;13.882;2023-07-28T06:23:32;15.80;99.90
11385;DHT22;5747;56.748;13.882;2023-07-28T06:26:00;16.00;99.90
11385;DHT22;5747;56.748;13.882;2023-07-28T06:28:30;16.60;99.90
11385;DHT22;5747;56.748;13.882;2023-07-28T06:30:58;17.20;99.90
11385;DHT22;5747;56.748;13.882;2023-07-28T06:33:28;17.70;99.90
11385;DHT22;5747;56.748;13.882;2023-07-28T06:35:57;18.20;99.90
11385;DHT22;5747;56.748;13.882;2023-07-28T06:38:25;18.40;99.90
11385;DHT22;5747;56.748;13.882;2023-07-28T06:40:54;18.70;99.90
11385;DHT22;5747;56.748;13.882;2023-07-28T06:43:23;18.60;99.90
11385;DHT22;5747;56.748;13.882;2023-07-28T06:45:52;19.00;99.90
11385;DHT22;5747;56.748;13.882;2023-07-28T06:48:21;18.40;99.90
11385;DHT22;5747;56.748;13.882;2023-07-28T06:50:49;19.20;99.90
11385;DHT22;5747;56.748;13.882;2023-07-28T06:53:18;19.50;99.90
11385;DHT22;5747;56.748;13.882;2023-07-28T06:55:46;20.30;99.90
11385;DHT22;5747;56.748;13.882;2023-07-28T06:58:16;21.00;99.90
11385;DHT22;5747;56.748;13.882;2023-07-28T07:00:44;21.10;99.90
11385;DHT22;5747;56.748;13.882;2023-07-28T07:03:12;21.00;99.90
11385;DHT22;5747;56.748;13.882;2023-07-28T07:05:41;20.50;99.90
11385;DHT22;5747;56.748;13.882;2023-07-28T07:08:10;20.40;99.90
11385;DHT22;5747;56.748;13.882;2023-07-28T07:10:39;20.10;99.90
11385;DHT22;5747;56.748;13.882;2023-07-28T07:13:07;19.80;99.90
11385;DHT22;5747;56.748;13.882;2023-07-28T07:15:36;19.50;99.90
11385;DHT22;5747;56.748;13.882;2023-07-28T07:18:05;19.10;99.90
11385;DHT22;5747;56.748;13.882;2023-07-28T07:20:34;18.70;99.90
11385;DHT22;5747;56.748;13.882;2023-07-28T07:23:02;18.60;99.90
11385;DHT22;5747;56.748;13.882;2023-07-28T07:25:31;18.50;99.90
11385;DHT22;5747;56.748;13.882;2023-07-28T07:28:02;18.30;99.90
11385;DHT22;5747;56.748;13.882;2023-07-28T07:30:32;18.30;99.90
11385;DHT22;5747;56.748;13.882;2023-07-28T07:33:02;18.20;99.90
11385;DHT22;5747;56.748;13.882;2023-07-28T07:35:30;18.30;99.90
11385;DHT22;5747;56.748;13.882;2023-07-28T07:37:58;18.40;99.90
11385;DHT22;5747;56.748;13.882;2023-07-28T07:40:26;18.60;99.90
11385;DHT22;5747;56.748;13.882;2023-07-28T07:42:55;18.50;99.90
11385;DHT22;5747;56.748;13.882;2023-07-28T07:45:23;17.80;99.90
11385;DHT22;5747;56.748;13.882;2023-07-28T07:47:51;18.00;99.90
11385;DHT22;5747;56.748;13.882;2023-07-28T07:50:21;18.30;99.90
11385;DHT22;5747;56.748;13.882;2023-07-28T07:52:49;17.60;99.90
11385;DHT22;5747;56.748;13.882;2023-07-28T07:55:17;17.20;99.90
11385;DHT22;5747;56.748;13.882;2023-07-28T07:57:46;17.10;99.90
11385;DHT22;5747;56.748;13.882;2023-07-28T08:00:14;17.10;99.90
11385;DHT22;5747;56.748;13.882;2023-07-28T08:02:42;17.70;99.90
11385;DHT22;5747;56.748;13.882;2023-07-28T08:05:12;17.50;99.90
11385;DHT22;5747;56.748;13.882;2023-07-28T08:07:42;17.30;99.90
11385;DHT22;5747;56.748;13.882;2023-07-28T08:10:11;17.50;99.90
11385;DHT22;5747;56.748;13.882;2023-07-28T08:12:39;18.00;99.90
11385;DHT22;5747;56.748;13.882;2023-07-28T08:15:09;17.70;99.90
11385;DHT22;5747;56.748;13.882;2023-07-28T08:17:37;17.60;99.90
11385;DHT22;5747;56.748;13.882;2023-07-28T08:20:06;17.90;99.90
11385;DHT22;5747;56.748;13.882;2023-07-28T08:22:35;17.80;99.90
11385;DHT22;5747;56.748;13.882;2023-07-28T08:25:05;17.80;99.90
11385;DHT22;5747;56.748;13.882;2023-07-28T08:27:33;17.60;99.90
11385;DHT22;5747;56.748;13.882;2023-07-28T08:30:02;18.00;99.90
11385;DHT22;5747;56.748;13.882;2023-07-28T08:32:30;18.10;99.90
11385;DHT22;5747;56.748;13.882;2023-07-28T08:34:59;18.40;99.90
11385;DHT22;5747;56.748;13.882;2023-07-28T08:37:27;18.50;99.90
11385;DHT22;5747;56.748;13.882;2023-07-28T08:39:56;17.90;99.90
11385;DHT22;5747;56.748;13.882;2023-07-28T08:42:25;17.60;99.90
11385;DHT22;5747;56.748;13.882;2023-07-28T08:44:53;17.80;99.90
11385;DHT22;5747;56.748;13.882;2023-07-28T08:47:21;18.10;99.90
11385;DHT22;5747;56.748;13.882;2023-07-28T08:49:50;17.80;99.90
11385;DHT22;5747;56.748;13.882;2023-07-28T08:52:18;17.80;99.90
11385;DHT22;5747;56.748;13.882;2023-07-28T08:54:46;17.70;99.90
11385;DHT22;5747;56.748;13.882;2023-07-28T08:57:14;17.90;99.90
11385;DHT22;5747;56.748;13.882;2023-07-28T08:59:44;17.70;99.90
11385;DHT22;5747;56.748;13.882;2023-07-28T09:02:15;17.50;99.90
11385;DHT22;5747;56.748;13.882;2023-07-28T09:04:44;17.50;99.90
11385;DHT22;5747;56.748;13.882;2023-07-28T09:07:13;17.80;99.90
11385;DHT22;5747;56.748;13.882;2023-07-28T09:09:41;18.20;99.90
11385;DHT22;5747;56.748;13.882;2023-07-28T09:12:10;18.40;99.90
11385;DHT22;5747;56.748;13.882;2023-07-28T09:14:38;17.90;99.90
11385;DHT22;5747;56.748;13.882;2023-07-28T09:17:09;17.80;99.90
11385;DHT22;5747;56.748;13.882;2023-07-28T09:19:50;17.90;99.90
11385;DHT22;5747;56.748;13.882;2023-07-28T09:22:18;18.10;99.90
11385;DHT22;5747;56.748;13.882;2023-07-28T09:24:47;18.10;99.90
11385;DHT22;5747;56.748;13.882;2023-07-28T09:27:23;18.10;99.90
11385;DHT22;5747;56.748;13.882;2023-07-28T09:29:53;18.30;99.90
11385;DHT22;5747;56.748;13.882;2023-07-28T09:32:30;18.40;99.90
11385;DHT22;5747;56.748;13.882;2023-07-28T09:35:10;18.40;99.90
11385;DHT22;5747;56.748;13.882;2023-07-28T09:37:40;18.40;99.90
11385;DHT22;5747;56.748;13.882;2023-07-28T09:40:11;18.30;99.90
11385;DHT22;5747;56.748;13.882;2023-07-28T09:42:39;18.10;99.90
11385;DHT22;5747;56.748;13.882;2023-07-28T09:45:08;18.10;99.90
11385;DHT22;5747;56.748;13.882;2023-07-28T09:47:56;18.50;99.90
11385;DHT22;5747;56.748;13.882;2023-07-28T09:50:27;18.50;99.90
11385;DHT22;5747;56.748;13.882;2023-07-28T09:53:00;18.40;99.90
11385;DHT22;5747;56.748;13.882;2023-07-28T09:55:29;18.60;99.90
11385;DHT22;5747;56.748;13.882;2023-07-28T09:58:00;18.60;99.90
11385;DHT22;5747;56.748;13.882;2023-07-28T10:00:31;18.30;99.90
11385;DHT22;5747;56.748;13.882;2023-07-28T10:03:02;18.30;99.90
11385;DHT22;5747;56.748;13.882;2023-07-28T10:05:30;18.40;99.90
11385;DHT22;5747;56.748;13.882;2023-07-28T10:07:59;18.50;99.90
11385;DHT22;5747;56.748;13.882;2023-07-28T10:10:30;18.60;99.90
11385;DHT22;5747;56.748;13.882;2023-07-28T10:12:59;18.90;99.90
11385;DHT22;5747;56.748;13.882;2023-07-28T10:15:29;18.90;99.90
11385;DHT22;5747;56.748;13.882;2023-07-28T10:17:58;18.70;99.90
11385;DHT22;5747;56.748;13.882;2023-07-28T10:20:30;18.90;99.90
11385;DHT22;5747;56.748;13.882;2023-07-28T10:23:05;19.10;99.90
11385;DHT22;5747;56.748;13.882;2023-07-28T10:25:35;18.90;99.90
11385;DHT22;5747;56.748;13.882;2023-07-28T10:28:05;19.00;99.90
11385;DHT22;5747;56.748;13.882;2023-07-28T10:30:40;18.70;99.90
11385;DHT22;5747;56.748;13.882;2023-07-28T10:33:27;18.90;99.90
11385;DHT22;5747;56.748;13.882;2023-07-28T10:35:58;19.10;99.90
11385;DHT22;5747;56.748;13.882;2023-07-28T10:38:31;19.20;99.90
11385;DHT22;5747;56.748;13.882;2023-07-28T10:41:11;19.30;99.90
11385;DHT22;5747;56.748;13.882;2023-07-28T10:43:39;19.50;99.90
11385;DHT22;5747;56.748;13.882;2023-07-28T10:46:10;19.50;99.90
11385;DHT22;5747;56.748;13.882;2023-07-28T10:48:42;19.70;99.90
11385;DHT22;5747;56.748;13.882;2023-07-28T10:51:12;19.60;99.90
11385;DHT22;5747;56.748;13.882;2023-07-28T10:53:50;19.70;99.90
11385;DHT22;5747;56.748;13.882;2023-07-28T10:56:18;19.70;99.90
11385;DHT22;5747;56.748;13.882;2023-07-28T10:58:46;19.80;99.90
11385;DHT22;5747;56.748;13.882;2023-07-28T11:01:15;19.70;99.90
11385;DHT22;5747;56.748;13.882;2023-07-28T11:03:46;19.70;99.90
11385;DHT22;5747;56.748;13.882;2023-07-28T11:06:16;19.70;99.90
11385;DHT22;5747;56.748;13.882;2023-07-28T11:08:44;19.80;99.90
11385;DHT22;5747;56.748;13.882;2023-07-28T11:11:13;19.80;99.90
11385;DHT22;5747;56.748;13.882;2023-07-28T11:13:41;19.70;99.90
11385;DHT22;5747;56.748;13.882;2023-07-28T11:16:10;19.70;99.90
11385;DHT22;5747;56.748;13.882;2023-07-28T11:18:39;19.80;99.90
11385;DHT22;5747;56.748;13.882;2023-07-28T11:21:07;19.70;99.90
11385;DHT22;5747;56.748;13.882;2023-07-28T11:23:37;19.90;99.90
11385;DHT22;5747;56.748;13.882;2023-07-28T11:26:07;19.80;99.90
11385;DHT22;5747;56.748;13.882;2023-07-28T11:28:38;19.60;99.90
11385;DHT22;5747;56.748;13.882;2023-07-28T11:31:08;19.70;99.90
11385;DHT22;5747;56.748;13.882;2023-07-28T11:33:36;19.90;99.90
11385;DHT22;5747;56.748;13.882;2023-07-28T11:36:05;20.10;99.90
11385;DHT22;5747;56.748;13.882;2023-07-28T11:38:34;20.20;99.90
11385;DHT22;5747;56.748;13.882;2023-07-28T11:41:04;20.40;99.90
11385;DHT22;5747;56.748;13.882;2023-07-28T11:43:32;20.20;99.90
11385;DHT22;5747;56.748;13.882;2023-07-28T11:46:01;20.20;99.90
11385;DHT22;5747;56.748;13.882;2023-07-28T11:48:30;20.30;99.90
11385;DHT22;5747;56.748;13.882;2023-07-28T11:50:59;20.20;99.90
11385;DHT22;5747;56.748;13.882;2023-07-28T11:53:32;20.20;99.90
11385;DHT22;5747;56.748;13.882;2023-07-28T11:56:01;20.30;99.90
11385;DHT22;5747;56.748;13.882;2023-07-28T11:58:31;20.40;99.90
11385;DHT22;5747;56.748;13.882;2023-07-28T12:01:07;20.30;99.90
11385;DHT22;5747;56.748;13.882;2023-07-28T12:03:37;20.40;99.90
11385;DHT22;5747;56.748;13.882;2023-07-28T12:06:05;20.50;99.90
11385;DHT22;5747;56.748;13.882;2023-07-28T12:08:39;20.50;99.90
11385;DHT22;5747;56.748;13.882;2023-07-28T12:11:13;20.30;99.90
11385;DHT22;5747;56.748;13.882;2023-07-28T12:13:49;20.40;99.90
11385;DHT22;5747;56.748;13.882;2023-07-28T12:16:39;20.50;99.90
11385;DHT22;5747;56.748;13.882;2023-07-28T12:19:11;20.50;99.90
11385;DHT22;5747;56.748;13.882;2023-07-28T12:21:40;20.50;99.90
11385;DHT22;5747;56.748;13.882;2023-07-28T12:24:08;20.40;99.90
11385;DHT22;5747;56.748;13.882;2023-07-28T12:26:36;20.40;99.90
11385;DHT22;5747;56.748;13.882;2023-07-28T12:29:08;20.50;99.90
11385;DHT22;5747;56.748;13.882;2023-07-28T12:31:38;20.70;99.90
11385;DHT22;5747;56.748;13.882;2023-07-28T12:34:10;20.90;99.90
11385;DHT22;5747;56.748;13.882;2023-07-28T12:36:51;20.80;99.90
11385;DHT22;5747;56.748;13.882;2023-07-28T12:39:21;20.70;99.90
11385;DHT22;5747;56.748;13.882;2023-07-28T12:41:53;20.70;99.90
11385;DHT22;5747;56.748;13.882;2023-07-28T12:44:25;20.60;99.90
11385;DHT22;5747;56.748;13.882;2023-07-28T12:46:56;20.60;99.90
11385;DHT22;5747;56.748;13.882;2023-07-28T12:49:25;20.70;99.90
11385;DHT22;5747;56.748;13.882;2023-07-28T12:51:53;20.70;99.90
11385;DHT22;5747;56.748;13.882;2023-07-28T12:54:24;20.70;99.90
11385;DHT22;5747;56.748;13.882;2023-07-28T12:56:53;20.60;99.90
11385;DHT22;5747;56.748;13.882;2023-07-28T12:59:25;20.50;99.90
11385;DHT22;5747;56.748;13.882;2023-07-28T13:01:54;20.50;99.90
11385;DHT22;5747;56.748;13.882;2023-07-28T13:04:22;20.60;99.90
11385;DHT22;5747;56.748;13.882;2023-07-28T13:06:50;20.70;99.90
11385;DHT22;5747;56.748;13.882;2023-07-28T13:09:38;20.80;99.90
11385;DHT22;5747;56.748;13.882;2023-07-28T13:12:08;21.00;99.90
11385;DHT22;5747;56.748;13.882;2023-07-28T13:14:41;21.10;99.90
11385;DHT22;5747;56.748;13.882;2023-07-28T13:17:09;21.00;99.90
11385;DHT22;5747;56.748;13.882;2023-07-28T13:19:38;21.20;99.90
11385;DHT22;5747;56.748;13.882;2023-07-28T13:22:07;21.20;99.90
11385;DHT22;5747;56.748;13.882;2023-07-28T13:24:37;21.10;99.90
11385;DHT22;5747;56.748;13.882;2023-07-28T13:27:06;21.00;99.90
11385;DHT22;5747;56.748;13.882;2023-07-28T13:29:34;21.00;99.90
11385;DHT22;5747;56.748;13.882;2023-07-28T13:32:04;20.90;99.90
11385;DHT22;5747;56.748;13.882;2023-07-28T13:34:42;21.00;99.90
11385;DHT22;5747;56.748;13.882;2023-07-28T13:37:10;21.10;99.90
11385;DHT22;5747;56.748;13.882;2023-07-28T13:39:39;21.20;99.90
11385;DHT22;5747;56.748;13.882;2023-07-28T13:42:07;21.20;99.90
11385;DHT22;5747;56.748;13.882;2023-07-28T13:44:35;21.10;99.90
11385;DHT22;5747;56.748;13.882;2023-07-28T13:47:13;21.20;99.90
11385;DHT22;5747;56.748;13.882;2023-07-28T13:49:41;21.30;99.90
11385;DHT22;5747;56.748;13.882;2023-07-28T13:52:12;21.30;99.90
11385;DHT22;5747;56.748;13.882;2023-07-28T13:54:47;21.30;99.90
11385;DHT22;5747;56.748;13.882;2023-07-28T13:57:19;21.40;99.90
11385;DHT22;5747;56.748;13.882;2023-07-28T13:59:47;21.30;99.90
11385;DHT22;5747;56.748;13.882;2023-07-28T14:02:17;21.50;99.90
11385;DHT22;5747;56.748;13.882;2023-07-28T14:04:45;20.90;99.90
11385;DHT22;5747;56.748;13.882;2023-07-28T14:07:13;20.80;99.90
11385;DHT22;5747;56.748;13.882;2023-07-28T14:09:42;20.50;99.90
11385;DHT22;5747;56.748;13.882;2023-07-28T14:12:10;20.30;99.90
11385;DHT22;5747;56.748;13.882;2023-07-28T14:14:38;20.30;99.90
11385;DHT22;5747;56.748;13.882;2023-07-28T14:17:06;20.20;99.90
11385;DHT22;5747;56.748;13.882;2023-07-28T14:19:37;20.00;99.90
11385;DHT22;5747;56.748;13.882;2023-07-28T14:22:06;20.00;99.90
11385;DHT22;5747;56.748;13.882;2023-07-28T14:24:34;19.70;99.90
11385;DHT22;5747;56.748;13.882;2023-07-28T14:27:04;19.60;99.90
11385;DHT22;5747;56.748;13.882;2023-07-28T14:29:32;19.50;99.90
11385;DHT22;5747;56.748;13.882;2023-07-28T14:32:00;19.50;99.90
11385;DHT22;5747;56.748;13.882;2023-07-28T14:34:28;19.70;99.90
11385;DHT22;5747;56.748;13.882;2023-07-28T14:37:00;20.00;99.90
11385;DHT22;5747;56.748;13.882;2023-07-28T14:39:28;20.40;99.90
11385;DHT22;5747;56.748;13.882;2023-07-28T14:41:56;20.60;99.90
11385;DHT22;5747;56.748;13.882;2023-07-28T14:44:24;20.80;99.90
11385;DHT22;5747;56.748;13.882;2023-07-28T14:46:52;20.90;99.90
11385;DHT22;5747;56.748;13.882;2023-07-28T14:49:20;20.90;99.90
11385;DHT22;5747;56.748;13.882;2023-07-28T14:51:48;21.00;99.90
11385;DHT22;5747;56.748;13.882;2023-07-28T14:54:18;20.90;99.90
11385;DHT22;5747;56.748;13.882;2023-07-28T14:56:46;20.90;99.90
11385;DHT22;5747;56.748;13.882;2023-07-28T14:59:14;21.10;99.90
11385;DHT22;5747;56.748;13.882;2023-07-28T15:01:44;21.10;99.90
11385;DHT22;5747;56.748;13.882;2023-07-28T15:04:13;21.00;99.90
11385;DHT22;5747;56.748;13.882;2023-07-28T15:06:42;21.00;99.90
11385;DHT22;5747;56.748;13.882;2023-07-28T15:09:11;21.00;99.90
11385;DHT22;5747;56.748;13.882;2023-07-28T15:11:41;20.90;99.90
11385;DHT22;5747;56.748;13.882;2023-07-28T15:14:09;20.80;99.90
11385;DHT22;5747;56.748;13.882;2023-07-28T15:16:38;20.70;99.90
11385;DHT22;5747;56.748;13.882;2023-07-28T15:19:07;20.80;99.90
11385;DHT22;5747;56.748;13.882;2023-07-28T15:21:35;20.70;99.90
11385;DHT22;5747;56.748;13.882;2023-07-28T15:24:04;20.70;99.90
11385;DHT22;5747;56.748;13.882;2023-07-28T15:26:32;20.70;99.90
11385;DHT22;5747;56.748;13.882;2023-07-28T15:29:04;20.50;99.90
11385;DHT22;5747;56.748;13.882;2023-07-28T15:31:32;19.90;99.90
11385;DHT22;5747;56.748;13.882;2023-07-28T15:34:00;19.80;99.90
11385;DHT22;5747;56.748;13.882;2023-07-28T15:36:28;19.60;99.90
11385;DHT22;5747;56.748;13.882;2023-07-28T15:38:56;19.40;99.90
11385;DHT22;5747;56.748;13.882;2023-07-28T15:41:25;19.40;99.90
11385;DHT22;5747;56.748;13.882;2023-07-28T15:43:53;19.50;99.90
11385;DHT22;5747;56.748;13.882;2023-07-28T15:46:23;19.70;99.90
11385;DHT22;5747;56.748;13.882;2023-07-28T15:48:51;19.60;99.90
11385;DHT22;5747;56.748;13.882;2023-07-28T15:51:19;19.50;99.90